Time;durP1;ratioP1;P1;durP2;ratioP2;P2;SDS_P1;SDS_P2;PMS_P1;PMS_P2;Temp;Humidity;BMP_temperature;BMP_pressure;BME280_temperature;BME280_humidity;BME280_pressure;Samples;Min_cycle;Max_cycle;Signal;HPM_P1;HPM_P2
2023/07/13 00:01:29;;;;;;;;;;;;;;;23.09;59.81;98800.91;5095576;28;19934;-45
2023/07/13 00:03:57;;;;;;;;;;;;;;;23.08;60.00;98796.66;5094157;28;20384;-45
2023/07/13 00:06:22;;;;;;;;;;;;;;;23.01;60.19;98795.34;5095470;28;20312;-46
2023/07/13 00:08:48;;;;;;;;;;;;;;;23.00;60.08;98807.09;5077019;28;19911;-45
2023/07/13 00:11:15;;;;;;;;;;;;;;;22.99;60.62;98797.50;5095357;28;19912;-45
2023/07/13 00:13:41;;;;;;;;;;;;;;;23.00;60.69;98793.72;5094043;28;20377;-45
2023/07/13 00:16:06;;;;;;;;;;;;;;;23.02;60.77;98795.09;5093973;28;19938;-45
2023/07/13 00:18:32;;;;;;;;;;;;;;;23.04;60.98;98789.44;5093928;28;19916;-45
2023/07/13 00:21:04;;;;;;;;;;;;;;;23.07;61.29;98788.91;5093899;28;19935;-45
2023/07/13 00:23:30;;;;;;;;;;;;;;;23.11;61.13;98785.38;5095164;28;20336;-45
2023/07/13 00:25:57;;;;;;;;;;;;;;;23.11;61.06;98798.75;5095104;28;19962;-45
2023/07/13 00:28:22;;;;;;;;;;;;;;;23.04;60.87;98789.44;5095008;28;20007;-45
2023/07/13 00:30:48;;;;;;;;;;;;;;;23.03;60.91;98793.22;5094951;28;20462;-45
2023/07/13 00:33:13;;;;;;;;;;;;;;;23.07;60.92;98791.56;5094970;28;20289;-45
2023/07/13 00:35:39;;;;;;;;;;;;;;;23.08;60.59;98796.66;5094664;28;19939;-45
2023/07/13 00:38:05;;;;;;;;;;;;;;;23.11;60.99;98796.09;5094906;28;19999;-47
2023/07/13 00:40:30;;;;;;;;;;;;;;;23.22;60.62;98788.78;5093461;28;20002;-45
2023/07/13 00:42:57;;;;;;;;;;;;;;;23.30;60.46;98796.22;5093557;28;19912;-45
2023/07/13 00:45:22;;;;;;;;;;;;;;;23.41;60.34;98799.59;5094691;28;19916;-45
2023/07/13 00:47:48;;;;;;;;;;;;;;;23.48;60.24;98791.22;5094617;28;20385;-45
2023/07/13 00:50:14;;;;;;;;;;;;;;;23.55;60.08;98789.00;5094637;28;19955;-45
2023/07/13 00:52:41;;;;;;;;;;;;;;;23.58;60.00;98795.69;5093279;28;19912;-45
2023/07/13 00:55:09;;;;;;;;;;;;;;;23.60;59.66;98790.84;5093169;28;19912;-45
2023/07/13 00:57:34;;;;;;;;;;;;;;;23.61;59.15;98806.63;5094406;28;19919;-45
2023/07/13 01:00:06;;;;;;;;;;;;;;;23.57;59.24;98802.91;5094455;28;19912;-45
2023/07/13 01:02:32;;;;;;;;;;;;;;;23.55;58.92;98802.41;5093173;28;20030;-45
2023/07/13 01:04:57;;;;;;;;;;;;;;;23.54;58.97;98800.78;5093017;28;20393;-45
2023/07/13 01:07:23;;;;;;;;;;;;;;;23.49;58.03;98814.25;5094228;28;19956;-45
2023/07/13 01:09:48;;;;;;;;;;;;;;;23.50;58.24;98813.16;5092911;28;20015;-45
2023/07/13 01:12:14;;;;;;;;;;;;;;;23.54;58.11;98819.53;5094192;28;19981;-45
2023/07/13 01:14:40;;;;;;;;;;;;;;;23.58;58.32;98817.91;5094175;28;19958;-45
2023/07/13 01:17:08;;;;;;;;;;;;;;;23.59;57.87;98808.78;5094047;28;19912;-45
2023/07/13 01:19:39;;;;;;;;;;;;;;;23.63;57.89;98811.72;5094072;28;19923;-45
2023/07/13 01:22:14;;;;;;;;;;;;;;;23.67;57.51;98821.56;5094060;28;19919;-45
2023/07/13 01:24:42;;;;;;;;;;;;;;;23.66;57.23;98817.31;5092634;28;20433;-45
2023/07/13 01:27:08;;;;;;;;;;;;;;;23.66;57.09;98817.31;5093894;28;19916;-45
2023/07/13 01:29:35;;;;;;;;;;;;;;;23.71;57.09;98811.09;5092471;28;19916;-45
2023/07/13 01:32:00;;;;;;;;;;;;;;;23.73;56.88;98809.72;5092486;28;19912;-45
2023/07/13 01:34:27;;;;;;;;;;;;;;;23.76;56.25;98811.03;5093501;28;19922;-45
2023/07/13 01:36:53;;;;;;;;;;;;;;;23.78;56.19;98816.13;5093699;28;19919;-45
2023/07/13 01:39:21;;;;;;;;;;;;;;;23.77;55.96;98811.84;5094219;28;20262;-45
2023/07/13 01:41:47;;;;;;;;;;;;;;;23.76;55.51;98812.91;5093592;28;19911;-45
2023/07/13 01:44:12;;;;;;;;;;;;;;;23.68;55.27;98808.97;5092261;28;19939;-45
2023/07/13 01:46:38;;;;;;;;;;;;;;;23.61;54.79;98813.88;5093514;28;19912;-45
2023/07/13 01:49:03;;;;;;;;;;;;;;;23.59;54.12;98803.44;5092089;28;19912;-45
2023/07/13 01:51:28;;;;;;;;;;;;;;;23.52;54.21;98811.00;5093373;28;19912;-45
2023/07/13 01:53:54;;;;;;;;;;;;;;;23.48;54.28;98815.31;5093059;28;19916;-45
2023/07/13 01:56:20;;;;;;;;;;;;;;;23.47;53.50;98816.41;5093388;28;19912;-45
2023/07/13 01:58:46;;;;;;;;;;;;;;;23.46;52.78;98812.13;5093265;28;20050;-45
2023/07/13 02:01:11;;;;;;;;;;;;;;;23.55;52.96;98812.34;5093256;28;19957;-45
2023/07/13 02:03:37;;;;;;;;;;;;;;;23.49;52.12;98804.31;5091864;28;19916;-45
2023/07/13 02:06:02;;;;;;;;;;;;;;;23.44;52.25;98809.75;5091840;28;19916;-45
2023/07/13 02:08:28;;;;;;;;;;;;;;;23.40;51.79;98800.69;5091727;28;19912;-45
2023/07/13 02:10:54;;;;;;;;;;;;;;;23.38;51.17;98802.03;5093070;28;19912;-45
2023/07/13 02:13:19;;;;;;;;;;;;;;;23.44;51.18;98808.94;5091707;28;19934;-45
2023/07/13 02:15:45;;;;;;;;;;;;;;;23.50;51.03;98807.81;5091639;28;19920;-45
2023/07/13 02:18:10;;;;;;;;;;;;;;;23.51;51.06;98804.06;5093210;28;19912;-45
2023/07/13 02:20:35;;;;;;;;;;;;;;;23.50;51.08;98807.81;5092888;28;19912;-45
2023/07/13 02:23:01;;;;;;;;;;;;;;;23.45;51.06;98810.53;5092884;28;20393;-45
2023/07/13 02:25:26;;;;;;;;;;;;;;;23.40;51.03;98822.09;5092797;28;19961;-45
2023/07/13 02:27:52;;;;;;;;;;;;;;;23.42;51.13;98822.63;5091415;28;20002;-45
2023/07/13 02:30:18;;;;;;;;;;;;;;;23.47;51.01;98821.78;5091455;28;20297;-45
2023/07/13 02:32:44;;;;;;;;;;;;;;;23.50;51.22;98830.06;5092713;28;20446;-45
2023/07/13 02:35:09;;;;;;;;;;;;;;;23.48;51.51;98831.38;5091209;28;19923;-45
2023/07/13 02:37:35;;;;;;;;;;;;;;;23.56;53.16;98830.78;5092674;28;19912;-45
2023/07/13 02:40:02;;;;;;;;;;;;;;;23.59;55.66;98843.63;5092559;28;20289;-45
2023/07/13 02:42:28;;;;;;;;;;;;;;;23.45;57.76;98864.13;5092824;28;19915;-45
2023/07/13 02:44:53;;;;;;;;;;;;;;;23.00;58.53;98880.22;5092475;28;20405;-43
2023/07/13 02:47:19;;;;;;;;;;;;;;;22.13;58.88;98878.69;5091127;28;19912;-44
2023/07/13 02:49:44;;;;;;;;;;;;;;;21.12;61.49;98888.28;5092542;28;20028;-44
2023/07/13 02:52:09;;;;;;;;;;;;;;;20.38;65.34;98882.16;5091431;28;19912;-44
2023/07/13 02:54:35;;;;;;;;;;;;;;;19.97;70.46;98887.25;5092390;28;20304;-44
2023/07/13 02:57:00;;;;;;;;;;;;;;;19.75;75.75;98895.38;5091027;28;20293;-44
2023/07/13 02:59:26;;;;;;;;;;;;;;;19.56;79.90;98898.41;5091330;28;20015;-44
2023/07/13 03:01:52;;;;;;;;;;;;;;;19.48;83.60;98892.75;5092262;28;20006;-44
2023/07/13 03:04:19;;;;;;;;;;;;;;;19.53;86.45;98896.22;5092258;28;19912;-44
2023/07/13 03:06:45;;;;;;;;;;;;;;;19.47;88.04;98891.91;5091438;28;19968;-44
2023/07/13 03:09:12;;;;;;;;;;;;;;;19.35;89.96;98894.75;5090876;28;19916;-43
2023/07/13 03:11:38;;;;;;;;;;;;;;;19.30;91.78;98894.72;5090883;28;20549;-44
2023/07/13 03:14:03;;;;;;;;;;;;;;;19.36;92.54;98903.56;5091201;28;20051;-44
2023/07/13 03:16:29;;;;;;;;;;;;;;;19.31;93.16;98914.13;5090804;28;19912;-43
2023/07/13 03:18:55;;;;;;;;;;;;;;;19.35;93.69;98909.91;5090919;28;20002;-43
2023/07/13 03:21:20;;;;;;;;;;;;;;;19.41;93.95;98914.22;5092089;28;20403;-44
2023/07/13 03:23:46;;;;;;;;;;;;;;;19.56;95.38;98919.69;5090823;28;19919;-44
2023/07/13 03:26:14;;;;;;;;;;;;;;;19.63;94.79;98930.13;5092089;28;19919;-44
2023/07/13 03:28:40;;;;;;;;;;;;;;;19.54;94.38;98926.34;5090711;28;19916;-45
2023/07/13 03:31:07;;;;;;;;;;;;;;;19.52;94.09;98937.22;5090770;28;19923;-45
2023/07/13 03:33:32;;;;;;;;;;;;;;;19.56;93.86;98938.31;5091783;28;20393;-45
2023/07/13 03:35:58;;;;;;;;;;;;;;;19.47;93.24;98941.69;5090786;28;19912;-44
2023/07/13 03:38:23;;;;;;;;;;;;;;;19.32;93.54;98956.47;5090705;28;19912;-44
2023/07/13 03:40:49;;;;;;;;;;;;;;;19.08;93.74;98960.47;5091975;28;19911;-43
2023/07/13 03:43:14;;;;;;;;;;;;;;;18.76;94.77;98961.91;5091928;28;19912;-44
2023/07/13 03:45:40;;;;;;;;;;;;;;;18.38;95.21;98960.09;5091945;28;19919;-43
2023/07/13 03:48:05;;;;;;;;;;;;;;;17.98;96.15;98969.06;5091898;28;19990;-44
2023/07/13 03:50:31;;;;;;;;;;;;;;;17.59;97.23;98966.28;5091874;28;19912;-44
2023/07/13 03:52:59;;;;;;;;;;;;;;;17.34;98.87;98969.25;5091913;28;19916;-43
2023/07/13 03:55:26;;;;;;;;;;;;;;;17.19;100.00;98969.78;5090910;28;20006;-43
2023/07/13 03:57:59;;;;;;;;;;;;;;;17.27;100.00;98964.09;5091918;28;19966;-42
2023/07/13 04:00:24;;;;;;;;;;;;;;;17.20;100.00;98952.03;5090428;28;20433;-43
2023/07/13 04:02:50;;;;;;;;;;;;;;;17.07;100.00;98947.81;5090552;28;19918;-42
2023/07/13 04:05:15;;;;;;;;;;;;;;;17.26;100.00;98956.38;5091670;28;20369;-42
2023/07/13 04:07:41;;;;;;;;;;;;;;;17.45;100.00;98954.34;5091717;28;19912;-43
2023/07/13 04:10:07;;;;;;;;;;;;;;;17.31;100.00;98967.09;5091727;28;19958;-43
2023/07/13 04:12:32;;;;;;;;;;;;;;;17.27;100.00;98958.78;5091689;28;20412;-42
2023/07/13 04:14:58;;;;;;;;;;;;;;;16.99;100.00;98954.28;5091658;28;20001;-42
2023/07/13 04:17:23;;;;;;;;;;;;;;;16.77;100.00;98954.09;5093359;28;19923;-42
2023/07/13 04:19:49;;;;;;;;;;;;;;;16.55;100.00;98960.00;5095218;28;19942;-43
2023/07/13 04:22:14;;;;;;;;;;;;;;;16.39;100.00;98966.00;5093871;28;19912;-42
2023/07/13 04:24:40;;;;;;;;;;;;;;;16.24;100.00;98958.53;5095145;28;19912;-42
2023/07/13 04:27:06;;;;;;;;;;;;;;;16.20;100.00;98954.72;5095023;28;19919;-42
2023/07/13 04:29:31;;;;;;;;;;;;;;;16.14;100.00;98960.94;5094952;28;19916;-43
2023/07/13 04:31:57;;;;;;;;;;;;;;;16.13;100.00;98957.47;5094995;28;20002;-43
2023/07/13 04:34:23;;;;;;;;;;;;;;;16.14;100.00;98956.44;5094723;28;19973;-43
2023/07/13 04:36:49;;;;;;;;;;;;;;;16.17;100.00;98955.16;5094903;28;19918;-43
2023/07/13 04:39:15;;;;;;;;;;;;;;;16.22;100.00;98952.66;5094843;28;19912;-43
2023/07/13 04:41:40;;;;;;;;;;;;;;;16.26;100.00;98950.31;5094825;28;19912;-42
2023/07/13 04:44:06;;;;;;;;;;;;;;;16.15;100.00;98950.09;5094776;28;19919;-43
2023/07/13 04:46:31;;;;;;;;;;;;;;;16.13;100.00;98956.66;5094755;28;19923;-42
2023/07/13 04:48:58;;;;;;;;;;;;;;;16.12;100.00;98960.38;5094638;28;19978;-42
2023/07/13 04:51:24;;;;;;;;;;;;;;;16.23;100.00;98961.41;5094595;28;19912;-42
2023/07/13 04:53:49;;;;;;;;;;;;;;;16.58;100.00;98950.78;5093296;28;20020;-43
2023/07/13 04:56:15;;;;;;;;;;;;;;;16.73;100.00;98953.75;5093232;28;20373;-43
2023/07/13 04:58:40;;;;;;;;;;;;;;;16.84;100.00;98961.94;5093213;28;20407;-43
2023/07/13 05:01:06;;;;;;;;;;;;;;;16.89;100.00;98960.19;5093159;28;19912;-43
2023/07/13 05:03:32;;;;;;;;;;;;;;;16.91;100.00;98960.75;5094447;28;19912;-43
2023/07/13 05:05:58;;;;;;;;;;;;;;;16.84;100.00;98973.34;5094285;28;19912;-43
2023/07/13 05:08:24;;;;;;;;;;;;;;;16.83;100.00;98966.44;5094224;28;19951;-43
2023/07/13 05:10:50;;;;;;;;;;;;;;;16.79;100.00;98967.91;5092980;28;19951;-44
2023/07/13 05:13:15;;;;;;;;;;;;;;;16.88;100.00;98973.66;5094191;28;19916;-44
2023/07/13 05:15:40;;;;;;;;;;;;;;;17.08;100.00;98970.63;5094190;28;19912;-44
2023/07/13 05:18:06;;;;;;;;;;;;;;;17.19;100.00;98972.44;5094085;28;19957;-44
2023/07/13 05:20:31;;;;;;;;;;;;;;;17.33;100.00;98976.41;5094063;28;19912;-44
2023/07/13 05:22:57;;;;;;;;;;;;;;;17.68;100.00;98993.22;5093995;28;19916;-44
2023/07/13 05:25:22;;;;;;;;;;;;;;;17.97;100.00;98980.75;5093946;28;19920;-44
2023/07/13 05:27:48;;;;;;;;;;;;;;;18.13;100.00;98981.78;5094005;28;19912;-44
2023/07/13 05:30:13;;;;;;;;;;;;;;;18.16;100.00;98974.13;5092011;28;19912;-44
2023/07/13 05:32:39;;;;;;;;;;;;;;;18.43;100.00;98969.97;5092523;28;19966;-45
2023/07/13 05:35:04;;;;;;;;;;;;;;;18.66;100.00;98975.09;5092258;28;19915;-44
2023/07/13 05:37:30;;;;;;;;;;;;;;;18.83;100.00;98972.41;5094028;28;20010;-44
2023/07/13 05:39:56;;;;;;;;;;;;;;;19.06;100.00;98976.69;5092420;28;19919;-44
2023/07/13 05:42:21;;;;;;;;;;;;;;;19.21;100.00;98977.91;5092326;28;19958;-44
2023/07/13 05:44:46;;;;;;;;;;;;;;;19.23;100.00;98979.25;5093613;28;19912;-44
2023/07/13 05:47:14;;;;;;;;;;;;;;;19.41;100.00;98983.44;5092209;28;20377;-44
2023/07/13 05:49:39;;;;;;;;;;;;;;;19.69;100.00;98984.22;5093491;28;19962;-44
2023/07/13 05:52:05;;;;;;;;;;;;;;;19.84;100.00;98987.06;5093402;28;20309;-44
2023/07/13 05:54:30;;;;;;;;;;;;;;;20.14;100.00;98986.50;5093452;28;20297;-44
2023/07/13 05:56:56;;;;;;;;;;;;;;;20.78;100.00;98981.31;5092096;28;20007;-44
2023/07/13 05:59:21;;;;;;;;;;;;;;;22.29;100.00;98977.56;5093308;28;20381;-44
2023/07/13 06:01:47;;;;;;;;;;;;;;;22.43;98.85;98993.88;5093259;28;20266;-44
2023/07/13 06:04:12;;;;;;;;;;;;;;;21.99;97.90;99000.56;5093234;28;19923;-44
2023/07/13 06:06:37;;;;;;;;;;;;;;;21.51;98.71;98999.97;5091864;28;19912;-45
2023/07/13 06:09:03;;;;;;;;;;;;;;;21.48;100.00;99001.31;5093078;28;19912;-44
2023/07/13 06:11:29;;;;;;;;;;;;;;;21.78;100.00;99007.78;5093063;28;19945;-45
2023/07/13 06:13:55;;;;;;;;;;;;;;;22.01;100.00;99008.31;5093145;28;19939;-45
2023/07/13 06:16:21;;;;;;;;;;;;;;;22.22;100.00;99009.13;5093229;28;19919;-45
2023/07/13 06:18:47;;;;;;;;;;;;;;;22.39;100.00;99008.84;5093039;28;20285;-44
2023/07/13 06:21:14;;;;;;;;;;;;;;;22.54;100.00;99006.16;5092931;28;19923;-45
2023/07/13 06:23:40;;;;;;;;;;;;;;;23.32;100.00;98994.09;5092937;28;19911;-44
2023/07/13 06:26:06;;;;;;;;;;;;;;;25.25;100.00;99005.25;5092832;28;19960;-44
2023/07/13 06:28:32;;;;;;;;;;;;;;;27.72;92.46;98988.91;5092714;28;19912;-44
2023/07/13 06:31:01;;;;;;;;;;;;;;;29.14;82.69;98992.75;5091467;28;19912;-45
2023/07/13 06:33:26;;;;;;;;;;;;;;;28.65;78.31;98992.78;5092579;28;20350;-45
2023/07/13 06:35:52;;;;;;;;;;;;;;;27.84;78.80;99008.03;5091656;28;20050;-45
2023/07/13 06:38:18;;;;;;;;;;;;;;;28.36;84.14;99009.50;5091395;28;19912;-45
2023/07/13 06:40:43;;;;;;;;;;;;;;;30.26;81.34;99007.34;5090385;28;20002;-45
2023/07/13 06:43:08;;;;;;;;;;;;;;;31.99;77.43;98993.03;5092616;28;20335;-45
2023/07/13 06:45:54;;;;;;;;;;;;;;;33.25;72.74;98992.44;5092571;28;20019;-45
2023/07/13 06:48:19;;;;;;;;;;;;;;;33.76;67.76;98997.41;5092056;28;20369;-45
2023/07/13 06:50:45;;;;;;;;;;;;;;;34.02;67.08;98992.25;5091178;28;19919;-46
2023/07/13 06:53:11;;;;;;;;;;;;;;;34.23;69.39;98988.53;5091125;28;19912;-46
2023/07/13 06:55:37;;;;;;;;;;;;;;;34.65;71.38;98996.16;5092440;28;19912;-46
2023/07/13 06:58:03;;;;;;;;;;;;;;;34.96;72.04;99006.25;5092326;28;20006;-45
2023/07/13 07:00:29;;;;;;;;;;;;;;;35.18;73.73;99004.03;5092383;28;19958;-45
2023/07/13 07:02:54;;;;;;;;;;;;;;;35.68;75.61;99004.25;5091029;28;19967;-45
2023/07/13 07:05:21;;;;;;;;;;;;;;;36.87;73.80;99005.13;5092598;28;19912;-45
2023/07/13 07:07:50;;;;;;;;;;;;;;;38.23;72.55;98999.69;5092304;28;20274;-46
2023/07/13 07:10:15;;;;;;;;;;;;;;;39.04;68.59;99001.50;5092257;28;19912;-46
2023/07/13 07:12:41;;;;;;;;;;;;;;;39.66;67.62;99014.31;5092227;28;19923;-46
2023/07/13 07:15:06;;;;;;;;;;;;;;;38.58;62.44;99012.13;5092216;28;19962;-46
2023/07/13 07:17:32;;;;;;;;;;;;;;;36.47;66.10;99016.63;5092270;28;19912;-46
2023/07/13 07:19:57;;;;;;;;;;;;;;;35.69;68.36;99006.63;5092134;28;19965;-46
2023/07/13 07:22:25;;;;;;;;;;;;;;;35.66;68.83;99010.09;5074017;28;19947;-46
2023/07/13 07:24:51;;;;;;;;;;;;;;;35.42;65.23;99024.78;5090872;28;19912;-46
2023/07/13 07:27:16;;;;;;;;;;;;;;;34.73;65.89;99022.47;5092065;28;19916;-46
2023/07/13 07:29:42;;;;;;;;;;;;;;;34.14;65.00;99029.56;5092060;28;19923;-46
2023/07/13 07:32:07;;;;;;;;;;;;;;;34.81;68.47;99021.50;5092348;28;19993;-46
2023/07/13 07:34:33;;;;;;;;;;;;;;;35.23;67.42;99017.38;5091811;28;20065;-46
2023/07/13 07:37:02;;;;;;;;;;;;;;;35.82;66.06;99007.28;5090756;28;20297;-46
2023/07/13 07:39:27;;;;;;;;;;;;;;;35.96;65.62;99007.53;5092046;28;19947;-46
2023/07/13 07:41:53;;;;;;;;;;;;;;;35.05;68.15;99014.22;5091910;28;19973;-46
2023/07/13 07:44:18;;;;;;;;;;;;;;;33.81;68.05;99008.03;5091958;28;19912;-46
2023/07/13 07:46:44;;;;;;;;;;;;;;;32.60;71.12;99014.16;5091973;28;19962;-45
2023/07/13 07:49:10;;;;;;;;;;;;;;;32.43;74.87;99017.81;5091813;28;19935;-46
2023/07/13 07:51:36;;;;;;;;;;;;;;;33.09;72.68;99016.84;5091474;28;20000;-46
2023/07/13 07:54:01;;;;;;;;;;;;;;;34.00;71.60;99013.59;5095770;28;19951;-46
2023/07/13 07:56:26;;;;;;;;;;;;;;;35.00;69.95;99014.50;5095665;28;20010;-46
2023/07/13 07:58:52;;;;;;;;;;;;;;;35.68;66.80;99013.25;5094369;28;20039;-46
2023/07/13 08:01:17;;;;;;;;;;;;;;;36.33;65.22;99012.47;5095532;28;19916;-46
2023/07/13 08:03:43;;;;;;;;;;;;;;;37.34;64.82;99006.56;5095583;28;19916;-46
2023/07/13 08:06:08;;;;;;;;;;;;;;;37.97;62.41;99012.34;5095418;28;19918;-46
2023/07/13 08:08:34;;;;;;;;;;;;;;;38.60;58.20;99007.06;5095388;28;19912;-46
2023/07/13 08:11:02;;;;;;;;;;;;;;;39.17;54.64;99015.66;5095393;28;19923;-46
2023/07/13 08:13:28;;;;;;;;;;;;;;;39.66;53.46;99019.00;5095394;28;19912;-46
2023/07/13 08:15:53;;;;;;;;;;;;;;;40.09;51.35;99013.66;5093951;28;19916;-47
2023/07/13 08:18:19;;;;;;;;;;;;;;;40.63;51.40;99002.63;5093994;28;19955;-47
2023/07/13 08:20:44;;;;;;;;;;;;;;;41.20;50.28;99007.28;5094227;28;19912;-47
2023/07/13 08:23:10;;;;;;;;;;;;;;;41.91;51.86;99001.38;5093902;28;20393;-47
2023/07/13 08:25:35;;;;;;;;;;;;;;;42.21;52.02;98999.22;5093837;28;19966;-47
2023/07/13 08:28:02;;;;;;;;;;;;;;;42.02;46.06;99011.59;5093807;28;19972;-47
2023/07/13 08:30:27;;;;;;;;;;;;;;;42.23;47.76;99018.91;5095062;28;20305;-47
2023/07/13 08:32:53;;;;;;;;;;;;;;;42.24;47.31;99007.47;5095045;28;19916;-47
2023/07/13 08:35:19;;;;;;;;;;;;;;;42.43;46.67;99017.16;5094807;28;19916;-47
2023/07/13 08:37:44;;;;;;;;;;;;;;;42.88;49.42;99014.41;5094919;28;19912;-47
2023/07/13 08:40:11;;;;;;;;;;;;;;;43.00;49.32;99018.59;5094865;28;19918;-47
2023/07/13 08:42:39;;;;;;;;;;;;;;;43.41;51.61;99012.22;5093612;28;19916;-47
2023/07/13 08:45:21;;;;;;;;;;;;;;;44.04;52.00;99017.25;5094828;28;19948;-46
2023/07/13 08:48:09;;;;;;;;;;;;;;;43.93;47.94;99008.38;5094813;28;19999;-46
2023/07/13 08:50:39;;;;;;;;;;;;;;;42.22;47.89;99012.63;5093471;28;19920;-46
2023/07/13 08:53:07;;;;;;;;;;;;;;;42.72;48.40;99005.09;5093534;28;19997;-47
2023/07/13 08:55:36;;;;;;;;;;;;;;;43.17;47.80;99007.78;5093325;28;19920;-46
2023/07/13 08:58:04;;;;;;;;;;;;;;;42.49;46.42;99003.75;5094779;28;19916;-46
2023/07/13 09:00:46;;;;;;;;;;;;;;;40.95;52.00;99027.38;5094739;28;19998;-47
2023/07/13 09:03:34;;;;;;;;;;;;;;;39.54;51.72;99020.16;5092176;28;20305;-46
2023/07/13 09:06:02;;;;;;;;;;;;;;;39.36;47.73;99020.06;5094300;28;19916;-46
2023/07/13 09:08:46;;;;;;;;;;;;;;;39.89;46.96;99027.75;5094242;28;19919;-46
2023/07/13 09:11:12;;;;;;;;;;;;;;;38.04;52.14;99019.88;5094313;28;20450;-46
2023/07/13 09:13:56;;;;;;;;;;;;;;;38.79;53.76;99022.50;5094245;28;19919;-46
2023/07/13 09:16:22;;;;;;;;;;;;;;;39.86;49.50;99019.47;5094245;28;19962;-46
2023/07/13 09:18:50;;;;;;;;;;;;;;;40.18;48.82;99014.03;5094168;28;20001;-46
2023/07/13 09:21:17;;;;;;;;;;;;;;;38.86;49.04;99026.06;5094073;28;19915;-46
2023/07/13 09:23:43;;;;;;;;;;;;;;;38.23;51.76;99027.91;5094269;28;20388;-46
2023/07/13 09:26:15;;;;;;;;;;;;;;;39.30;53.64;99024.34;5094202;28;19915;-46
2023/07/13 09:28:42;;;;;;;;;;;;;;;40.25;54.61;99029.75;5093935;28;19957;-46
2023/07/13 09:31:40;;;;;;;;;;;;;;;40.10;55.76;99032.47;5092534;28;20301;-47
2023/07/13 09:34:10;;;;;;;;;;;;;;;40.97;54.26;99030.53;5069571;28;20331;-47
2023/07/13 09:36:35;;;;;;;;;;;;;;;39.48;53.57;99030.75;5092466;28;19916;-46
2023/07/13 09:39:00;;;;;;;;;;;;;;;38.26;52.21;99027.16;5092455;28;19912;-46
2023/07/13 09:41:37;;;;;;;;;;;;;;;38.95;52.12;99034.72;5093688;28;19961;-47
2023/07/13 09:44:09;;;;;;;;;;;;;;;39.89;52.36;99029.72;5093634;28;19916;-46
2023/07/13 09:46:35;;;;;;;;;;;;;;;40.16;47.93;99030.13;5093659;28;19990;-47
2023/07/13 09:49:00;;;;;;;;;;;;;;;39.45;51.49;99028.00;5092184;28;20377;-46
2023/07/13 09:51:26;;;;;;;;;;;;;;;38.65;52.98;99032.19;5093479;28;19923;-46
2023/07/13 09:53:51;;;;;;;;;;;;;;;38.48;53.57;99039.09;5092132;28;19912;-45
2023/07/13 09:56:24;;;;;;;;;;;;;;;39.10;53.61;99032.09;5093405;28;20377;-47
2023/07/13 09:58:50;;;;;;;;;;;;;;;38.63;49.77;99037.25;5093292;28;20018;-46
2023/07/13 10:01:16;;;;;;;;;;;;;;;37.75;52.04;99042.28;5093302;28;20006;-46
2023/07/13 10:03:51;;;;;;;;;;;;;;;38.23;55.86;99044.34;5093507;28;19912;-46
2023/07/13 10:06:18;;;;;;;;;;;;;;;38.74;52.69;99037.38;5093210;28;19916;-46
2023/07/13 10:08:44;;;;;;;;;;;;;;;39.26;47.43;99029.03;5093103;28;19916;-46
2023/07/13 10:11:22;;;;;;;;;;;;;;;39.57;49.19;99033.13;5093159;28;20392;-46
2023/07/13 10:13:59;;;;;;;;;;;;;;;40.08;51.63;99042.31;5093345;28;20365;-47
2023/07/13 10:16:25;;;;;;;;;;;;;;;40.76;54.50;99042.34;5093091;28;20308;-47
2023/07/13 10:18:58;;;;;;;;;;;;;;;41.01;54.29;99042.31;5093027;28;19957;-47
2023/07/13 10:21:28;;;;;;;;;;;;;;;41.07;46.09;99045.44;5092996;28;19916;-47
2023/07/13 10:24:05;;;;;;;;;;;;;;;40.99;47.02;99043.88;5092828;28;19968;-47
2023/07/13 10:26:32;;;;;;;;;;;;;;;41.27;43.77;99041.09;5093219;28;19912;-46
2023/07/13 10:29:00;;;;;;;;;;;;;;;41.36;42.91;99042.63;5092803;28;19912;-46
2023/07/13 10:31:26;;;;;;;;;;;;;;;41.06;43.83;99032.84;5091484;28;19934;-46
2023/07/13 10:33:51;;;;;;;;;;;;;;;39.60;42.80;99037.06;5092530;28;20381;-47
2023/07/13 10:36:35;;;;;;;;;;;;;;;39.66;46.14;99047.31;5092740;28;20004;-46
2023/07/13 10:39:03;;;;;;;;;;;;;;;40.29;51.46;99047.81;5091363;28;19912;-47
2023/07/13 10:41:29;;;;;;;;;;;;;;;40.79;46.05;99032.50;5091319;28;19955;-46
2023/07/13 10:43:57;;;;;;;;;;;;;;;40.76;50.06;99031.34;5092596;28;19919;-47
2023/07/13 10:46:26;;;;;;;;;;;;;;;40.99;49.93;99025.41;5091643;28;20289;-47
2023/07/13 10:48:55;;;;;;;;;;;;;;;40.71;47.58;99027.00;5092407;28;19912;-47
2023/07/13 10:51:21;;;;;;;;;;;;;;;39.94;46.16;99030.13;5091257;28;19912;-47
2023/07/13 10:53:47;;;;;;;;;;;;;;;39.94;49.41;99030.13;5091188;28;19958;-46
2023/07/13 10:56:21;;;;;;;;;;;;;;;39.95;41.00;99022.66;5092473;28;20006;-46
2023/07/13 10:58:47;;;;;;;;;;;;;;;39.49;42.36;99007.59;5092438;28;19919;-47
2023/07/13 11:01:15;;;;;;;;;;;;;;;39.26;48.79;99018.06;5092576;28;20340;-47
2023/07/13 11:03:43;;;;;;;;;;;;;;;39.74;53.11;99017.84;5091080;28;19912;-47
2023/07/13 11:06:15;;;;;;;;;;;;;;;40.36;47.75;99007.78;5091035;28;19912;-47
2023/07/13 11:08:46;;;;;;;;;;;;;;;40.33;40.42;98992.84;5092222;28;19923;-46
2023/07/13 11:11:24;;;;;;;;;;;;;;;40.16;42.65;98999.88;5092319;28;19912;-47
2023/07/13 11:13:49;;;;;;;;;;;;;;;40.21;41.80;99002.25;5092237;28;19912;-47
2023/07/13 11:16:18;;;;;;;;;;;;;;;40.00;42.39;99007.72;5092277;28;19918;-47
2023/07/13 11:19:08;;;;;;;;;;;;;;;40.07;45.54;99003.03;5090928;28;19923;-47
2023/07/13 11:21:34;;;;;;;;;;;;;;;40.06;49.67;99000.66;5092259;28;20373;-47
2023/07/13 11:24:04;;;;;;;;;;;;;;;40.19;52.17;98993.63;5092225;28;19966;-47
2023/07/13 11:26:41;;;;;;;;;;;;;;;40.21;55.26;98994.00;5091330;28;20438;-47
2023/07/13 11:29:25;;;;;;;;;;;;;;;39.89;54.72;98986.50;5094944;28;20006;-47
2023/07/13 11:31:55;;;;;;;;;;;;;;;39.53;44.24;98991.91;5094846;28;20308;-47
2023/07/13 11:34:28;;;;;;;;;;;;;;;39.46;47.61;98986.41;5094550;28;19916;-47
2023/07/13 11:36:55;;;;;;;;;;;;;;;39.67;45.00;99006.88;5094749;28;19919;-46
2023/07/13 11:39:25;;;;;;;;;;;;;;;39.97;48.14;99008.53;5096079;28;20467;-47
2023/07/13 11:41:57;;;;;;;;;;;;;;;40.04;45.49;99001.06;5094712;28;20339;-47
2023/07/13 11:44:24;;;;;;;;;;;;;;;39.79;43.52;98992.75;5096032;28;19938;-46
2023/07/13 11:46:51;;;;;;;;;;;;;;;39.73;41.96;98989.59;5095860;28;20006;-47
2023/07/13 11:49:17;;;;;;;;;;;;;;;39.80;43.68;98980.56;5095849;28;19912;-47
2023/07/13 11:51:43;;;;;;;;;;;;;;;39.50;40.84;98984.47;5095716;28;19920;-46
2023/07/13 11:54:24;;;;;;;;;;;;;;;39.41;43.22;98973.00;5094504;28;19912;-47
2023/07/13 11:56:50;;;;;;;;;;;;;;;39.45;36.36;98971.09;5095732;28;20019;-47
2023/07/13 11:59:15;;;;;;;;;;;;;;;39.35;40.24;98969.84;5094359;28;20006;-47
2023/07/13 12:01:52;;;;;;;;;;;;;;;38.89;42.23;98962.16;5094325;28;19912;-47
2023/07/13 12:04:26;;;;;;;;;;;;;;;37.95;46.38;98952.47;5094376;28;19911;-46
2023/07/13 12:07:14;;;;;;;;;;;;;;;38.13;40.75;98947.16;5095524;28;19918;-46
2023/07/13 12:09:39;;;;;;;;;;;;;;;37.94;44.14;98947.34;5095484;28;19955;-46
2023/07/13 12:12:10;;;;;;;;;;;;;;;37.86;48.00;98951.97;5095479;28;19966;-46
2023/07/13 12:14:36;;;;;;;;;;;;;;;37.83;48.63;98944.53;5094493;28;20296;-46
2023/07/13 12:17:01;;;;;;;;;;;;;;;37.84;45.49;98942.56;5095364;28;19912;-46
2023/07/13 12:19:27;;;;;;;;;;;;;;;37.84;49.64;98950.78;5094026;28;19912;-47
2023/07/13 12:21:55;;;;;;;;;;;;;;;37.72;44.94;98949.88;5095522;28;20000;-47
2023/07/13 12:24:22;;;;;;;;;;;;;;;37.82;47.67;98950.38;5095280;28;19912;-47
2023/07/13 12:27:06;;;;;;;;;;;;;;;37.80;45.31;98949.97;5095106;28;19915;-47
2023/07/13 12:29:32;;;;;;;;;;;;;;;37.80;47.30;98947.22;5093825;28;19912;-47
2023/07/13 12:31:58;;;;;;;;;;;;;;;38.11;49.81;98949.50;5095096;28;19919;-47
2023/07/13 12:34:25;;;;;;;;;;;;;;;38.33;46.43;98944.16;5093505;28;19920;-46
2023/07/13 12:36:53;;;;;;;;;;;;;;;38.25;41.65;98934.31;5093674;28;19972;-46
2023/07/13 12:39:23;;;;;;;;;;;;;;;37.86;39.37;98953.94;5094897;28;19912;-47
2023/07/13 12:41:50;;;;;;;;;;;;;;;37.65;41.07;98949.84;5094807;28;19919;-46
2023/07/13 12:44:17;;;;;;;;;;;;;;;37.69;42.83;98949.84;5093593;28;20410;-46
2023/07/13 12:46:53;;;;;;;;;;;;;;;37.60;43.64;98941.16;5094707;28;19969;-47